Ana Sayfa
METAR-TAF:

METAR-TAF

Havaalanları :

Köstence, Romanya

Enlem: 44-20N, Boylam: 028-26E, yükseklik: 97 m

Güncel hava durumu gözlemi

Rapor saat 16:00 UTC de 23 dakika önce yapıldı.
Rüzgar doğudan 7 kt
Sıcaklık 21°C
Nem 73%
Basınç 1018 hPa
Görüş mesafesi 10 km veya daha fazla
1500 m altında bulut yok ve kümülonimbus yok

METAR: LRCK 231600Z 09007KT CAVOK 21/16 Q1018 NOSIG

Saat: 19:23 (16:23 UTC)

Tahmin

Rapor saat 11:00 UTC de 5 saat ve 23 dakika önce yapıldı.
Ayın 23'si saat 12 UTC'den ayın 24'si saat 12 UTC'ye kadar geçerli Tahmin
Rüzgar değişken yönden 4 kt
Görüş mesafesi 10 km veya daha fazla
1500 m altında bulut yok ve kümülonimbus yok
Geçici
ayın 23'si saat 12 UTC'den ayın 23'si saat 15 UTC'ye kadar
Rüzgar doğudan 10 kt

TAF: LRCK 231100Z 2312/2412 VRB04KT CAVOK TEMPO 2312/2315 09010KT

4.000'den fazla havaalanı için hava durumu gözlemleri ve tahminleri (METAR ve TAF raporları).

Kullanılabilir istasyonlar harita üzerinde sarı ve kırmızı noktalarla gösterilir.

İstasyonun adını görmek için fareyi noktanın üzerinde gezdirin.

Sonrasında hava gözlem ve tahminlerini görmek için tıklayın.

Haritayı değiştirmek için: yaklaştırmak için siyah artı işaretli yeşil düğmeye ve uzaklaştırmak için de eksi işaretli düğmeye hızla tıklayın; bitişik haritalar için yeşil okları kullanın.


METAR-TAF: